Austin, CO

2:14 AM MDT on August 21, 2014 (GMT -0600)
KCOAUSTI3 | Change Station
CLOSE
Current Station
Personal Weather Station
Location: Austin, CO
Elevation: 5837 ft
Nearby Weather Stations

Elev 5837 ft 38.82 °N, 107.95 °W | Updated 28 seconds ago

Clear
Clear
59.2 °F
Feels Like 59.2 °F
N
2.2
Wind Variable Wind from ENE

Today
High -- | Low -- °F
--% Chance of Precip.
Yesterday
High -- | Low -- °F
Precip. -- in
6:31 AM 7:58 PM
Waning Crescent, 16% visible
Pressure 30.13 in
Visibility 7.0 miles
Clouds Clear
Dew Point 47 °F
Humidity 64%
Rainfall 0.00 in
Snow Depth Not available.
UV 0 out of 12
Pollen 5.60 out of 12
Air Quality Not available.
Flu Activity Not available.
METAR KAJZ 210715Z AUTO 03006KT 7SM CLR 18/09 A3013 RMK AO2 T01780093

More Conditions Fewer Conditions

Pressure 30.13 in
Visibility 7.0 miles
Clouds Clear
Dew Point 47 °F
Humidity 64%
Rainfall 0.00 in
Snow Depth Not available.
UV 0 out of 12
Pollen 5.60 out of 12
Air Quality Not available.
Flu Activity Not available.
METAR KAJZ 210715Z AUTO 03006KT 7SM CLR 18/09 A3013 RMK AO2 T01780093

More Conditions Fewer Conditions

10-Day Weather Forecast

Almanac

Astronomy

Aug. 21, 2014 Rise Set
Actual Time 6:31 AM MDT 7:58 PM MDT
Civil Twilight 6:03 AM MDT 8:26 PM MDT
Nautical Twilight 5:29 AM MDT 8:59 PM MDT
Astronomical Twilight 4:54 AM MDT 9:34 PM MDT
Moon 3:04 AM MDT 5:28 PM MDT
Length of Visible Light 14h 22m
Length of Day
13h 27m
Tomorrow will be 2m 19s shorter.
Waning Crescent, 16% of the Moon is Illuminated
Today
Waning Crescent
Aug 25
New
Sep 2
First Quarter
Sep 8
Full
Sep 15
Last Quarter

Today's Extremes

State Highs State Lows

Community

WunderPhotos

Upload Photos

1,745,867 photos uploaded!

Nearby

Snow Depth

Station Depth Elevation
Park Reservoir 0 in 9960 ft
Mesa Lakes 0 in 10000 ft
Overland Reservoir 0 in 9880 ft
Columbine Pass 0 in 9400 ft
McClure Pass 1 in 9500 ft

Earthquake Activity

City Distance Mag. Time & Date
No recent earthquake activity has been reported nearby.
Minimum magnitude displayed is 2.5.

Coastal Water Temperatures

Place Temperature
No Stations Reporting

Nearby Weather Stations